CheckWX is a tool to help pilots better visualize weather data.  It is not intended as a substitute for an official pre-flight weather briefing.

07:27:33 UTC

KRWI TAF
Rocky Mount-Wilson Regional Airport
Rocky Mount, North Carolina, USA
KRWI 180536Z 1806/1906 04005KT P6SM BKN060 FM181400 04011KT P6SM SKC

Sep-18@
06:00 UTC

Sep-18 @ 06:00 UTC

Sep-18@
14:00 UTC

Sep-18 @ 14:00 UTC

KRWI 180536Z 1806/1906 04005KT P6SM BKN060
Wind
  • 040° at 5 KTS
Cloud Levels
  • Broken at 6,000' AGL

Sep-18@
14:00 UTC

Sep-18 @ 14:00 UTC

Sep-19@
06:00 UTC

Sep-19 @ 06:00 UTC

FM181400 04011KT P6SM SKC

From

From Standard forecast or significant change

Wind
  • 040° at 11 KTS
Cloud Levels
  • Clear skies